createdAt,value
2019-05-10T00:04:42.296Z,11.40
2019-05-10T00:11:49.304Z,11.40
2019-05-10T00:18:33.887Z,11.10
2019-05-10T00:25:19.547Z,10.80
2019-05-10T00:32:04.634Z,10.80
2019-05-10T00:38:49.656Z,10.90
2019-05-10T00:45:34.643Z,10.90
2019-05-10T00:52:19.506Z,10.90
2019-05-10T00:59:04.529Z,10.80
2019-05-10T01:05:49.523Z,10.80
2019-05-10T01:12:34.376Z,10.80
2019-05-10T01:19:19.478Z,10.80
2019-05-10T01:26:04.534Z,10.80
2019-05-10T01:32:50.639Z,10.80
2019-05-10T01:39:35.570Z,10.70
2019-05-10T01:46:20.432Z,10.60
2019-05-10T01:53:05.378Z,10.60
2019-05-10T01:59:51.099Z,10.70
2019-05-10T02:06:36.024Z,10.60
2019-05-10T02:13:20.947Z,10.60
2019-05-10T02:20:06.536Z,10.40
2019-05-10T02:26:51.394Z,10.10
2019-05-10T02:33:36.259Z,10.10
2019-05-10T02:40:21.247Z,10.00
2019-05-10T02:47:06.161Z,9.90
2019-05-10T02:53:51.253Z,9.60
2019-05-10T03:00:39.259Z,9.50
2019-05-10T03:07:44.392Z,9.60
2019-05-10T03:14:32.380Z,9.70
2019-05-10T03:21:18.571Z,9.60
2019-05-10T03:28:03.667Z,9.30
2019-05-10T03:34:48.650Z,9.10
2019-05-10T03:41:33.594Z,8.90
2019-05-10T03:48:18.617Z,9.10
2019-05-10T03:55:04.487Z,9.40
2019-05-10T04:01:49.407Z,9.60
2019-05-10T04:08:34.283Z,9.90
2019-05-10T04:15:19.691Z,10.00
2019-05-10T04:22:04.711Z,10.20
2019-05-10T04:28:49.916Z,10.30
2019-05-10T04:35:34.824Z,10.40
2019-05-10T04:42:19.825Z,10.50
2019-05-10T04:49:04.751Z,10.50
2019-05-10T04:55:51.394Z,10.90
2019-05-10T05:02:36.467Z,10.90
2019-05-10T05:09:21.588Z,11.20
2019-05-10T05:16:06.519Z,11.30
2019-05-10T05:22:51.422Z,12.00
2019-05-10T05:29:36.393Z,12.90
2019-05-10T05:36:21.675Z,12.60
2019-05-10T05:43:08.105Z,12.60
2019-05-10T05:49:53.191Z,21.90
2019-05-10T05:56:38.177Z,25.60
2019-05-10T06:03:29.550Z,23.20
2019-05-10T06:10:17.298Z,19.80
2019-05-10T06:16:58.290Z,24.10
2019-05-10T06:23:43.453Z,30.20
2019-05-10T06:30:28.469Z,32.90
2019-05-10T06:37:13.988Z,32.80
2019-05-10T06:43:59.495Z,29.30
2019-05-10T06:50:47.713Z,26.40
2019-05-10T06:57:33.963Z,23.60
2019-05-10T07:04:18.832Z,24.00
2019-05-10T07:11:03.836Z,21.40
2019-05-10T07:17:48.847Z,21.30
2019-05-10T07:24:33.912Z,19.70
2019-05-10T07:31:23.342Z,18.20
2019-05-10T07:38:05.552Z,18.00
2019-05-10T07:44:50.478Z,18.50
2019-05-10T07:51:35.375Z,18.30
2019-05-10T07:58:20.297Z,19.40
2019-05-10T08:05:10.825Z,19.10
2019-05-10T08:11:59.294Z,19.40
2019-05-10T08:18:42.401Z,20.20
2019-05-10T08:25:29.030Z,19.20
2019-05-10T08:32:13.564Z,25.60
2019-05-10T08:39:07.075Z,27.70
2019-05-10T08:45:49.420Z,25.70
2019-05-10T08:52:33.972Z,22.30
2019-05-10T08:59:23.739Z,20.90
2019-05-10T09:06:11.984Z,23.20
2019-05-10T09:12:57.903Z,25.80
2019-05-10T09:19:43.417Z,26.80
2019-05-10T09:26:26.044Z,23.10
2019-05-10T09:33:14.333Z,22.00
2019-05-10T09:40:05.839Z,22.80
2019-05-10T09:46:44.384Z,25.00
2019-05-10T09:53:30.409Z,26.70
2019-05-10T10:00:17.489Z,26.80
2019-05-10T10:07:02.824Z,24.50
2019-05-10T10:13:50.226Z,22.30
2019-05-10T10:20:40.650Z,21.20
2019-05-10T10:27:28.041Z,20.50
2019-05-10T10:34:09.167Z,20.60
2019-05-10T10:40:54.052Z,20.60
2019-05-10T10:47:39.242Z,20.50
2019-05-10T10:54:28.616Z,20.60
2019-05-10T11:01:21.288Z,20.20
2019-05-10T11:07:57.543Z,19.80
2019-05-10T11:14:45.293Z,20.50
2019-05-10T11:21:31.255Z,20.00
2019-05-10T11:28:16.495Z,20.30
2019-05-10T11:35:05.102Z,20.10
2019-05-10T11:41:52.973Z,19.40
2019-05-10T11:48:37.115Z,19.30
2019-05-10T11:55:24.579Z,19.60
2019-05-10T12:02:10.660Z,20.40
2019-05-10T12:09:01.055Z,20.80
2019-05-10T12:15:43.738Z,21.60
2019-05-10T12:22:38.307Z,21.40
2019-05-10T12:29:17.284Z,19.90
2019-05-10T12:36:02.355Z,17.90
2019-05-10T12:42:47.447Z,17.80
2019-05-10T12:49:35.998Z,17.80
2019-05-10T12:56:19.290Z,19.50
2019-05-10T13:03:12.654Z,19.70
2019-05-10T13:10:02.117Z,19.70
2019-05-10T13:16:37.530Z,20.20
2019-05-10T13:23:22.399Z,19.80
2019-05-10T13:30:08.190Z,19.80
2019-05-10T13:36:53.067Z,19.60
2019-05-10T13:43:37.931Z,19.00
2019-05-10T13:50:23.238Z,17.20
2019-05-10T13:57:09.675Z,15.90
2019-05-10T14:04:01.203Z,15.50
2019-05-10T14:10:41.844Z,15.20
2019-05-10T14:17:26.795Z,15.60
2019-05-10T14:24:15.270Z,16.80
2019-05-10T14:30:59.283Z,17.30
2019-05-10T14:37:47.698Z,18.00
2019-05-10T14:44:31.101Z,17.60
2019-05-10T14:51:15.994Z,17.40
2019-05-10T14:58:00.876Z,17.90
2019-05-10T15:04:47.063Z,17.40
2019-05-10T15:11:33.247Z,17.70
2019-05-10T15:18:18.224Z,18.90
2019-05-10T15:25:03.462Z,18.10
2019-05-10T15:31:48.429Z,18.00
2019-05-10T15:38:33.490Z,17.80
2019-05-10T15:45:19.603Z,17.80
2019-05-10T15:52:16.885Z,17.60
2019-05-10T15:58:51.684Z,17.50
2019-05-10T16:05:59.879Z,17.20
2019-05-10T16:12:37.925Z,16.80
2019-05-10T16:19:21.819Z,17.00
2019-05-10T16:26:06.839Z,17.10
2019-05-10T16:32:51.703Z,17.20
2019-05-10T16:39:36.635Z,17.20
2019-05-10T16:46:21.571Z,17.30
2019-05-10T16:53:08.171Z,17.20
2019-05-10T16:59:53.144Z,17.60
2019-05-10T17:06:40.404Z,17.70
2019-05-10T17:13:24.691Z,17.50
2019-05-10T17:20:13.915Z,17.30
2019-05-10T17:26:56.687Z,17.10
2019-05-10T17:33:42.567Z,17.00
2019-05-10T17:40:28.269Z,16.90
2019-05-10T17:47:13.135Z,17.00
2019-05-10T17:54:01.328Z,17.10
2019-05-10T18:00:45.217Z,17.00
2019-05-10T18:07:31.089Z,16.70
2019-05-10T18:14:18.069Z,16.40
2019-05-10T18:21:02.647Z,16.10
2019-05-10T18:27:47.810Z,15.80
2019-05-10T18:34:35.156Z,15.50
2019-05-10T18:41:19.300Z,15.10
2019-05-10T18:48:04.791Z,14.80
2019-05-10T18:54:49.716Z,14.70
2019-05-10T19:01:38.641Z,14.60
2019-05-10T19:08:21.172Z,14.60
2019-05-10T19:15:15.378Z,14.30
2019-05-10T19:21:56.897Z,14.20
2019-05-10T19:28:41.925Z,14.20
2019-05-10T19:35:29.980Z,14.30
2019-05-10T19:42:13.645Z,14.40
2019-05-10T19:48:58.513Z,14.40
2019-05-10T19:55:44.080Z,14.40
2019-05-10T20:02:29.214Z,14.20
2019-05-10T20:09:14.249Z,14.10
2019-05-10T20:16:01.398Z,14.00
2019-05-10T20:22:46.101Z,14.00
2019-05-10T20:29:31.047Z,14.00
2019-05-10T20:36:16.061Z,13.90
2019-05-10T20:43:01.029Z,13.80
2019-05-10T20:49:46.068Z,13.80
2019-05-10T20:56:31.008Z,13.60
2019-05-10T21:03:16.110Z,13.50
2019-05-10T21:10:01.119Z,13.50
2019-05-10T21:16:47.205Z,13.40
2019-05-10T21:23:32.145Z,13.30
2019-05-10T21:30:17.423Z,13.20
2019-05-10T21:37:02.371Z,13.20
2019-05-10T21:43:47.324Z,13.10
2019-05-10T21:50:34.671Z,13.00
2019-05-10T21:57:19.600Z,12.90
2019-05-10T22:10:59.413Z,12.70
2019-05-10T22:17:44.376Z,12.60
2019-05-10T22:24:29.253Z,12.60
2019-05-10T22:31:14.344Z,12.70
2019-05-10T22:37:59.553Z,12.80
2019-05-10T22:44:44.460Z,12.80
2019-05-10T22:51:29.389Z,12.60
2019-05-10T22:58:14.596Z,12.50
2019-05-10T23:04:59.466Z,12.30
2019-05-10T23:11:44.428Z,12.30
2019-05-10T23:18:29.435Z,12.30
2019-05-10T23:25:14.828Z,12.30
2019-05-10T23:31:59.767Z,12.20
2019-05-10T23:38:44.793Z,12.20
2019-05-10T23:45:29.652Z,12.10
2019-05-10T23:52:14.657Z,12.10
2019-05-10T23:58:59.689Z,12.10
